Time;durP1;ratioP1;P1;durP2;ratioP2;P2;SDS_P1;SDS_P2;PMS_P1;PMS_P2;Temp;Humidity;BMP_temperature;BMP_pressure;BME280_temperature;BME280_humidity;BME280_pressure;Samples;Min_cycle;Max_cycle;Signal;HPM_P1;HPM_P2
2021/11/07 00:00:00;;;;;;;11.27;3.92;;;9.30;99.90;;;7.81;97.94;100268.34;4882437;29;20058;-77
2021/11/07 00:02:43;;;;;;;8.52;3.20;;;9.20;99.90;;;7.78;98.33;100258.84;4877361;29;20066;-77
2021/11/07 00:05:22;;;;;;;9.10;3.30;;;9.20;99.90;;;7.74;98.01;100259.88;4853888;29;20539;-77
2021/11/07 00:08:01;;;;;;;7.10;3.20;;;9.30;99.90;;;7.80;97.98;100245.69;4878599;29;20537;-77
2021/11/07 00:10:41;;;;;;;7.60;3.53;;;9.20;99.90;;;7.77;98.09;100243.19;4882052;29;20063;-77
2021/11/07 00:13:22;;;;;;;5.38;3.00;;;9.20;99.90;;;7.78;98.04;100229.16;4880027;29;20531;-77
2021/11/07 00:15:49;;;;;;;8.75;3.30;;;9.20;99.90;;;7.76;98.09;100236.25;4888993;29;20066;-76
2021/11/07 00:18:20;;;;;;;5.22;3.10;;;9.20;99.90;;;7.71;98.89;100219.84;4895726;29;20188;-78
2021/11/07 00:20:59;;;;;;;9.32;3.47;;;9.20;99.90;;;7.72;99.20;100198.81;4878110;29;20067;-77
2021/11/07 00:26:18;;;;;;;8.77;3.58;;;9.20;99.90;;;7.69;99.07;100201.59;4898403;29;20101;-76
2021/11/07 00:28:57;;;;;;;7.00;4.15;;;9.20;99.90;;;7.71;99.21;100206.75;4901212;29;20074;-76
2021/11/07 00:39:40;;;;;;;6.22;3.60;;;9.20;99.90;;;7.82;99.74;100178.31;4882015;29;20024;-77
2021/11/07 00:49:56;;;;;;;7.07;3.88;;;9.30;99.90;;;7.83;99.76;100153.81;4898409;29;20482;-77
2021/11/07 00:52:37;;;;;;;7.72;3.63;;;9.30;99.90;;;7.83;99.50;100147.72;4875444;29;20681;-77
2021/11/07 01:00:27;;;;;;;4.95;3.63;;;9.20;99.90;;;7.81;100.00;100158.25;4873084;29;20209;-76
2021/11/07 01:02:58;;;;;;;7.82;3.35;;;9.20;99.90;;;7.84;100.00;100183.47;4875364;28;20556;-77
2021/11/07 01:05:27;;;;;;;8.52;3.75;;;9.30;99.90;;;7.92;99.93;100200.56;4867816;29;20085;-77
2021/11/07 01:07:55;;;;;;;5.70;3.65;;;9.30;99.90;;;7.90;100.00;100178.81;4895831;29;24808;-78
2021/11/07 01:10:23;;;;;;;8.20;3.67;;;9.30;99.90;;;7.88;100.00;100164.91;4870739;29;20060;-77
2021/11/07 01:12:50;;;;;;;10.43;4.13;;;9.30;99.90;;;7.87;100.00;100162.38;4857805;29;20512;-77
2021/11/07 01:15:18;;;;;;;8.05;3.95;;;9.30;99.90;;;7.88;100.00;100156.22;4901268;29;20076;-79
2021/11/07 01:17:44;;;;;;;7.70;3.97;;;;;;;7.86;100.00;100129.22;4836481;29;20028;-77
2021/11/07 01:20:13;;;;;;;8.45;3.92;;;9.30;99.90;;;7.87;100.00;100129.16;4890494;28;20043;-78
2021/11/07 01:25:07;;;;;;;9.65;4.47;;;9.30;99.90;;;7.85;100.00;100106.56;4901891;28;21890;-77
2021/11/07 01:27:43;;;;;;;9.00;4.35;;;9.30;99.90;;;7.86;100.00;100111.75;4864490;29;20515;-77
2021/11/07 01:30:18;;;;;;;5.95;4.00;;;9.30;99.90;;;7.84;100.00;100108.34;4889975;28;20165;-77
2021/11/07 01:33:07;;;;;;;7.95;4.07;;;9.30;99.90;;;7.87;100.00;100113.44;4872402;29;20048;-77
2021/11/07 01:35:42;;;;;;;11.18;4.65;;;9.30;99.90;;;7.85;100.00;100083.81;4887526;29;20071;-76
2021/11/07 01:38:15;;;;;;;8.07;4.40;;;;;;;7.88;100.00;100070.56;4873200;29;20157;-78
2021/11/07 01:40:57;;;;;;;8.57;4.57;;;9.30;99.90;;;7.83;100.00;100059.44;4898037;29;21048;-77
2021/11/07 01:43:23;;;;;;;9.80;4.85;;;9.30;99.90;;;7.85;100.00;100054.97;4868908;29;20124;-78
2021/11/07 01:45:58;;;;;;;6.40;4.43;;;9.30;99.90;;;7.83;100.00;100040.25;4870898;29;20069;-77
2021/11/07 01:48:27;;;;;;;13.82;5.78;;;9.20;99.90;;;7.81;100.00;100029.81;4886743;29;20160;-77
2021/11/07 01:50:57;;;;;;;8.30;4.10;;;9.30;99.90;;;7.81;100.00;100032.44;4882686;29;20537;-76
2021/11/07 01:53:33;;;;;;;11.13;4.47;;;9.30;99.90;;;7.79;100.00;100022.03;4897974;29;20035;-77
2021/11/07 01:56:08;;;;;;;10.73;4.93;;;9.20;99.90;;;7.74;100.00;100002.22;4861197;29;20069;-77
2021/11/07 01:58:36;;;;;;;15.15;5.65;;;9.10;99.90;;;7.72;100.00;99991.78;4879067;29;20080;-77
2021/11/07 02:01:07;;;;;;;7.93;4.70;;;9.10;99.90;;;7.65;100.00;99987.78;4883049;29;20089;-77
2021/11/07 02:03:35;;;;;;;12.98;5.00;;;9.00;99.90;;;7.56;100.00;99975.94;4889318;29;20313;-77
2021/11/07 02:06:02;;;;;;;8.13;4.97;;;9.00;99.90;;;7.53;100.00;99962.97;4881185;29;20072;-77
2021/11/07 02:08:29;;;;;;;14.02;5.30;;;9.00;99.90;;;7.52;100.00;99957.81;4860873;29;20070;-77
2021/11/07 02:10:58;;;;;;;17.77;5.22;;;8.90;99.90;;;7.51;100.00;99953.50;4878018;29;20031;-77
2021/11/07 02:13:27;;;;;;;10.77;5.50;;;8.90;99.90;;;7.47;100.00;99952.75;4882309;29;20572;-77
2021/11/07 02:15:54;;;;;;;7.80;5.10;;;8.90;99.90;;;7.49;100.00;99950.09;4896623;29;20032;-77
2021/11/07 02:18:21;;;;;;;9.93;5.50;;;8.90;99.90;;;7.43;100.00;99925.03;4920785;29;20415;-77
2021/11/07 02:20:50;;;;;;;14.27;5.35;;;8.90;99.90;;;7.41;100.00;99932.13;4876332;29;20552;-78
2021/11/07 02:23:21;;;;;;;8.10;4.70;;;8.80;99.90;;;7.43;100.00;99921.56;4876203;29;20128;-78
2021/11/07 02:25:52;;;;;;;11.18;5.45;;;8.90;99.90;;;7.43;100.00;99922.44;4887235;29;20128;-78
2021/11/07 02:28:35;;;;;;;8.18;4.80;;;9.50;99.90;;;7.48;100.00;99911.72;4861781;29;20077;-78
2021/11/07 02:31:04;;;;;;;18.83;5.10;;;8.90;99.90;;;7.49;100.00;99914.25;4877262;29;20131;-78
2021/11/07 02:33:31;;;;;;;11.63;5.65;;;8.90;99.90;;;7.48;100.00;99901.25;4845535;29;20098;-78
2021/11/07 02:36:11;;;;;;;15.43;5.57;;;8.90;99.90;;;7.46;100.00;99896.06;4874722;28;20092;-77
2021/11/07 02:38:41;;;;;;;12.57;5.43;;;8.90;99.90;;;7.45;100.00;99878.69;4898625;29;20103;-78
2021/11/07 02:41:09;;;;;;;12.00;6.20;;;8.90;99.90;;;7.46;100.00;99874.28;4891758;29;20408;-78
2021/11/07 02:43:55;;;;;;;11.15;5.38;;;8.90;99.90;;;7.48;100.00;99860.19;4895387;29;20063;-78
2021/11/07 02:46:24;;;;;;;13.85;6.63;;;9.00;99.90;;;7.51;100.00;99857.41;4865756;29;20077;-77
2021/11/07 02:48:57;;;;;;;9.73;5.68;;;9.00;99.90;;;7.55;100.00;99852.88;4875831;29;20062;-78
2021/11/07 02:51:32;;;;;;;11.23;5.00;;;9.00;99.90;;;7.53;100.00;99847.69;4904493;29;20163;-78
2021/11/07 02:54:07;;;;;;;9.98;5.38;;;9.00;99.90;;;7.50;100.00;99844.41;4904335;29;20069;-78
2021/11/07 02:56:33;;;;;;;8.23;5.05;;;9.00;99.90;;;7.53;100.00;99836.38;4895969;29;20494;-78
2021/11/07 02:59:00;;;;;;;13.48;5.85;;;8.90;99.90;;;7.42;100.00;99826.41;4872730;29;20524;-78
2021/11/07 03:01:29;;;;;;;14.43;4.97;;;8.80;99.90;;;7.34;100.00;99831.16;4876052;29;20059;-78
2021/11/07 03:04:06;;;;;;;11.75;5.80;;;8.80;99.90;;;7.34;100.00;99826.81;4849991;29;20496;-77
2021/11/07 03:06:35;;;;;;;16.50;6.40;;;8.80;99.90;;;7.31;100.00;99826.94;4872998;29;20053;-77
2021/11/07 03:09:07;;;;;;;10.63;5.93;;;8.80;99.90;;;7.34;100.00;99825.94;4873500;29;20459;-78
2021/11/07 03:11:40;;;;;;;12.55;5.80;;;8.80;99.90;;;7.41;100.00;99816.88;4896580;29;20041;-78
2021/11/07 03:14:11;;;;;;;16.08;6.82;;;8.80;99.90;;;7.36;100.00;99816.22;4873999;28;20074;-78
2021/11/07 03:16:37;;;;;;;12.73;6.13;;;8.90;99.90;;;7.45;100.00;99814.94;4840891;29;20084;-77
2021/11/07 03:19:03;;;;;;;10.63;6.13;;;8.90;99.90;;;7.47;100.00;99798.22;4859614;29;20058;-78
2021/11/07 03:21:29;;;;;;;12.52;6.45;;;8.90;99.90;;;7.51;100.00;99801.56;4856843;29;20078;-78
2021/11/07 03:23:55;;;;;;;13.07;5.57;;;8.90;99.90;;;7.49;100.00;99788.53;4856492;29;20061;-78
2021/11/07 03:26:25;;;;;;;10.32;5.40;;;9.00;99.90;;;7.51;100.00;99786.69;4875633;29;20070;-78
2021/11/07 03:28:56;;;;;;;7.25;5.15;;;9.00;99.90;;;7.52;100.00;99779.69;4880303;29;20029;-78
2021/11/07 03:32:07;;;;;;;10.93;5.07;;;9.00;99.90;;;7.52;100.00;99767.44;4863304;29;20475;-77
2021/11/07 03:34:19;;;;;;;10.18;4.95;;;9.00;99.90;;;7.58;100.00;99769.75;4873422;29;20089;-78
2021/11/07 03:36:52;;;;;;;8.82;5.05;;;9.00;99.90;;;7.54;100.00;99764.75;4838945;29;20074;-77
2021/11/07 03:39:23;;;;;;;10.40;5.07;;;9.00;99.90;;;7.56;100.00;99762.91;4877773;29;20396;-78
2021/11/07 03:41:51;;;;;;;9.13;4.60;;;9.00;99.90;;;7.57;100.00;99749.69;4878663;29;20082;-77
2021/11/07 03:44:26;;;;;;;10.57;5.10;;;9.00;99.90;;;7.56;100.00;99753.25;4823527;29;20051;-78
2021/11/07 03:46:55;;;;;;;8.07;4.78;;;9.00;99.90;;;7.51;100.00;99743.91;4862453;29;20538;-78
2021/11/07 03:49:25;;;;;;;8.38;4.63;;;9.00;99.90;;;7.49;100.00;99728.28;4910674;28;20102;-78
2021/11/07 03:51:52;;;;;;;10.98;4.80;;;8.90;99.90;;;7.47;100.00;99727.50;4889458;29;20431;-78
2021/11/07 03:54:19;;;;;;;12.18;4.78;;;8.90;99.90;;;7.40;100.00;99734.81;4881421;29;20058;-78
2021/11/07 03:56:45;;;;;;;11.90;5.25;;;8.90;99.90;;;7.43;100.00;99720.75;4875390;29;20494;-78
2021/11/07 03:59:11;;;;;;;8.90;5.22;;;8.90;99.90;;;7.41;100.00;99719.97;4866206;29;20095;-78
2021/11/07 04:01:39;;;;;;;11.70;5.32;;;8.80;99.90;;;7.40;100.00;99710.41;4870684;29;20034;-78
2021/11/07 04:04:08;;;;;;;8.10;4.40;;;8.90;99.90;;;7.45;100.00;99721.53;4852172;29;20120;-78
2021/11/07 04:06:36;;;;;;;7.53;4.60;;;8.90;99.90;;;7.48;100.00;99710.03;4852688;29;20036;-78
2021/11/07 04:09:11;;;;;;;7.80;3.97;;;8.90;99.90;;;7.51;100.00;99715.09;4888774;29;20081;-78
2021/11/07 04:11:40;;;;;;;7.00;4.78;;;9.00;99.90;;;7.52;100.00;99709.81;4897092;29;20089;-78
2021/11/07 04:14:10;;;;;;;8.82;4.82;;;9.00;99.90;;;7.51;100.00;99702.84;4823757;29;20533;-78
2021/11/07 04:16:37;;;;;;;8.90;3.85;;;8.90;99.90;;;7.52;100.00;99707.19;4868768;29;20038;-77
2021/11/07 04:19:06;;;;;;;11.13;4.68;;;9.00;99.90;;;7.54;100.00;99687.00;4886856;29;20073;-78
2021/11/07 04:21:33;;;;;;;10.13;4.32;;;9.00;99.90;;;7.51;100.00;99681.06;4877784;28;20054;-78
2021/11/07 04:23:59;;;;;;;9.23;4.65;;;9.00;99.90;;;7.52;100.00;99677.53;4846013;29;20158;-77
2021/11/07 04:26:26;;;;;;;9.38;3.90;;;9.00;99.90;;;7.53;100.00;99671.34;4870355;29;20051;-78
2021/11/07 04:28:52;;;;;;;6.82;3.80;;;9.00;99.90;;;7.56;100.00;99668.59;4894552;29;20050;-78
2021/11/07 04:31:18;;;;;;;6.68;3.95;;;9.00;99.90;;;7.58;100.00;99671.94;4878545;29;20124;-78
2021/11/07 04:33:44;;;;;;;8.98;3.90;;;9.00;99.90;;;7.55;100.00;99680.81;4875596;28;20530;-78
2021/11/07 04:36:11;;;;;;;7.80;4.70;;;9.00;99.90;;;7.57;100.00;99675.50;4826148;29;20095;-77
2021/11/07 04:38:39;;;;;;;6.30;4.13;;;9.00;99.90;;;7.63;100.00;99682.22;4884918;29;20613;-78
2021/11/07 04:41:16;;;;;;;9.30;4.25;;;9.00;99.90;;;7.62;100.00;99686.59;4878953;29;20075;-78
2021/11/07 04:43:52;;;;;;;9.75;4.20;;;9.10;99.90;;;7.60;100.00;99732.97;4864589;29;20554;-78
2021/11/07 04:46:19;;;;;;;7.93;4.38;;;9.10;99.90;;;7.62;100.00;99714.56;4852582;29;20538;-78
2021/11/07 04:48:48;;;;;;;7.32;4.13;;;9.00;99.90;;;7.62;100.00;99651.69;4886097;29;20078;-78
2021/11/07 04:51:17;;;;;;;7.95;4.45;;;9.00;99.90;;;7.58;100.00;99687.66;4887639;28;20078;-78
2021/11/07 04:53:46;;;;;;;7.47;4.60;;;9.00;99.90;;;7.58;100.00;99672.81;4819007;29;20069;-78
2021/11/07 04:56:13;;;;;;;9.32;4.68;;;9.10;99.90;;;7.63;100.00;99672.59;4865944;29;20219;-78
2021/11/07 04:58:46;;;;;;;8.68;4.85;;;9.10;99.90;;;7.60;100.00;99651.75;4821151;29;20449;-78
2021/11/07 05:01:12;;;;;;;7.63;4.97;;;9.10;99.90;;;7.64;100.00;99644.59;4883989;29;20157;-78
2021/11/07 05:03:38;;;;;;;8.88;4.55;;;9.10;99.90;;;7.64;100.00;99639.38;4853722;29;20066;-78
2021/11/07 05:06:06;;;;;;;6.75;4.70;;;;;;;7.62;100.00;99662.16;4841862;29;20073;-78
2021/11/07 05:08:35;;;;;;;11.57;4.82;;;9.10;99.90;;;7.62;100.00;99652.53;4871505;28;20599;-78
2021/11/07 05:11:01;;;;;;;7.53;4.78;;;9.10;99.90;;;7.69;100.00;99659.16;4870068;29;20032;-78
2021/11/07 05:13:27;;;;;;;10.93;4.22;;;9.10;99.90;;;7.67;100.00;99644.47;4841680;29;20378;-77
2021/11/07 05:15:54;;;;;;;11.30;4.38;;;10.10;99.90;;;7.66;100.00;99648.00;4878237;28;20103;-78
2021/11/07 05:18:20;;;;;;;9.07;4.80;;;9.10;99.90;;;7.62;100.00;99651.69;4916295;28;20061;-78
2021/11/07 05:20:49;;;;;;;7.97;4.65;;;9.00;99.90;;;7.57;100.00;99650.16;4883084;29;20533;-78
2021/11/07 05:23:16;;;;;;;7.57;4.72;;;9.00;99.90;;;7.50;100.00;99651.41;4898498;28;20482;-78
2021/11/07 05:25:42;;;;;;;7.72;5.03;;;8.90;99.90;;;7.51;100.00;99655.69;4853489;29;20071;-78
2021/11/07 05:28:10;;;;;;;7.90;4.45;;;8.90;99.90;;;7.49;100.00;99646.22;4816862;29;20412;-78
2021/11/07 05:30:37;;;;;;;6.97;4.63;;;8.90;99.90;;;7.46;100.00;99639.38;4855585;29;20043;-78
2021/11/07 05:33:09;;;;;;;9.68;4.30;;;8.90;99.90;;;7.45;100.00;99645.56;4882626;29;20059;-78
2021/11/07 05:35:34;;;;;;;6.72;4.38;;;8.90;99.90;;;7.46;100.00;99652.47;4862108;29;20074;-78
2021/11/07 05:38:01;;;;;;;7.13;4.10;;;8.90;99.90;;;7.47;100.00;99648.09;4873307;29;20081;-78
2021/11/07 05:40:28;;;;;;;9.80;3.70;;;8.90;99.90;;;7.46;100.00;99668.19;4854996;29;20122;-78
2021/11/07 05:43:01;;;;;;;8.77;4.20;;;8.90;99.90;;;7.46;100.00;99649.88;4869685;29;20099;-78
2021/11/07 05:45:27;;;;;;;7.72;4.80;;;8.90;99.90;;;7.44;100.00;99646.47;4858402;29;20061;-78
2021/11/07 05:47:54;;;;;;;6.72;4.35;;;7.80;99.90;;;7.46;100.00;99651.63;4857241;29;20028;-79
2021/11/07 05:50:22;;;;;;;7.00;4.25;;;8.90;99.90;;;7.43;100.00;99647.41;4855198;29;20414;-79
2021/11/07 05:52:53;;;;;;;5.13;3.92;;;;;;;7.41;100.00;99649.25;4860270;29;20499;-79
2021/11/07 05:55:19;;;;;;;7.40;4.10;;;8.90;99.90;;;7.42;100.00;99648.31;4859440;28;20074;-79
2021/11/07 05:57:45;;;;;;;6.45;4.00;;;8.90;99.90;;;7.45;100.00;99644.69;4833686;29;20753;-79
2021/11/07 06:00:14;;;;;;;5.53;4.07;;;8.90;99.90;;;7.48;100.00;99655.03;4839629;28;20089;-79
2021/11/07 06:02:43;;;;;;;6.20;3.72;;;8.90;99.90;;;7.49;100.00;99641.84;4905676;29;20062;-79
2021/11/07 06:05:09;;;;;;;6.70;4.63;;;9.00;99.90;;;7.52;100.00;99639.06;4876615;29;20153;-79
2021/11/07 06:07:35;;;;;;;8.15;4.32;;;9.00;99.90;;;7.59;100.00;99639.59;4846086;29;20065;-79
2021/11/07 06:10:02;;;;;;;6.82;3.80;;;9.00;99.90;;;7.57;100.00;99618.72;4869742;29;20098;-78
2021/11/07 06:12:28;;;;;;;5.85;3.40;;;9.00;99.90;;;7.58;100.00;99630.03;4876225;29;20182;-78
2021/11/07 06:15:01;;;;;;;4.43;3.35;;;9.00;99.90;;;7.60;100.00;99629.06;4857747;29;20067;-79
2021/11/07 06:17:27;;;;;;;6.38;3.55;;;9.10;99.90;;;7.65;100.00;99636.66;4873411;29;20028;-79
2021/11/07 06:19:53;;;;;;;7.78;4.15;;;9.10;99.90;;;7.65;100.00;99620.94;4894464;29;21066;-78
2021/11/07 06:22:19;;;;;;;4.15;3.03;;;9.10;99.90;;;7.66;100.00;99633.13;4870820;29;20055;-79
2021/11/07 06:24:48;;;;;;;5.00;3.10;;;9.10;99.90;;;7.71;100.00;99614.53;4825179;28;20109;-79
2021/11/07 06:27:16;;;;;;;3.42;2.67;;;9.20;99.90;;;7.74;100.00;99612.59;4858569;29;20067;-79
2021/11/07 06:29:42;;;;;;;4.63;2.78;;;9.20;99.90;;;7.71;100.00;99612.78;4870062;29;20035;-79
2021/11/07 06:32:10;;;;;;;3.35;2.47;;;9.20;99.90;;;7.71;100.00;99612.78;4844066;29;20455;-78
2021/11/07 06:34:37;;;;;;;5.85;2.80;;;9.10;99.90;;;7.72;100.00;99617.06;4866550;29;20066;-78
2021/11/07 06:37:09;;;;;;;2.83;2.15;;;9.20;99.90;;;7.74;100.00;99611.75;4888512;29;20614;-79
2021/11/07 06:39:37;;;;;;;8.00;2.65;;;9.20;99.90;;;7.76;100.00;99638.72;4879792;29;20085;-78
2021/11/07 06:42:05;;;;;;;4.00;2.85;;;9.20;99.90;;;7.74;100.00;99640.59;4887102;29;20055;-79
2021/11/07 06:44:34;;;;;;;5.07;2.65;;;9.20;99.90;;;7.72;100.00;99634.56;4874515;29;20163;-78
2021/11/07 06:47:01;;;;;;;5.20;3.40;;;9.20;99.90;;;7.74;100.00;99638.81;4882541;29;20061;-79
2021/11/07 06:49:27;;;;;;;3.80;3.08;;;9.20;99.90;;;7.67;100.00;99629.56;4875857;29;20502;-78
2021/11/07 06:51:54;;;;;;;6.05;3.28;;;9.20;99.90;;;7.68;100.00;99619.94;4892725;29;20066;-79
2021/11/07 06:54:24;;;;;;;6.30;3.55;;;9.10;99.90;;;7.62;100.00;99631.56;4887535;29;20107;-78
2021/11/07 06:56:51;;;;;;;5.80;2.67;;;9.10;99.90;;;7.58;100.00;99664.09;4896260;28;20520;-79
2021/11/07 06:59:16;;;;;;;5.97;2.60;;;9.00;99.90;;;7.57;100.00;99631.81;4846742;29;20062;-79
2021/11/07 07:01:43;;;;;;;4.85;1.58;;;9.00;99.90;;;7.53;100.00;99619.81;4849194;29;20547;-79
2021/11/07 07:04:09;;;;;;;5.55;1.95;;;9.00;99.90;;;7.55;100.00;99610.09;4830622;29;20063;-78
2021/11/07 07:06:36;;;;;;;3.83;2.13;;;9.00;99.90;;;7.64;100.00;99621.03;4865562;29;20070;-78
2021/11/07 07:09:13;;;;;;;3.22;2.17;;;9.10;99.90;;;7.67;100.00;99613.84;4880304;29;20077;-78
2021/11/07 07:11:48;;;;;;;3.75;2.60;;;9.20;99.90;;;7.70;100.00;99605.81;4890386;29;20054;-78
2021/11/07 07:30:05;;;;;;;200.93;123.60;;;9.40;99.90;;;8.02;100.00;99583.13;4873029;29;20073;-78
2021/11/07 07:35:22;;;;;;;9.98;3.22;;;9.30;99.90;;;7.92;100.00;99565.38;4871320;29;20167;-78
2021/11/07 07:37:48;;;;;;;240.60;85.25;;;9.30;99.90;;;7.89;100.00;99571.63;4857978;29;20050;-78
2021/11/07 07:40:19;;;;;;;7.25;2.47;;;9.30;99.90;;;7.87;100.00;99568.25;4893344;29;20529;-78
2021/11/07 07:42:45;;;;;;;6.95;3.28;;;9.30;99.90;;;7.90;100.00;99581.16;4856150;29;20055;-79
2021/11/07 07:45:12;;;;;;;7.53;1.90;;;9.40;99.90;;;7.96;100.00;99591.34;4871463;29;20093;-78
2021/11/07 07:47:39;;;;;;;5.13;1.98;;;9.50;99.90;;;8.09;100.00;99582.81;4877111;29;20053;-79
2021/11/07 07:50:10;;;;;;;12.20;2.30;;;9.60;99.90;;;8.23;100.00;99580.28;4874054;29;20414;-78
2021/11/07 07:52:37;;;;;;;3.88;1.48;;;9.60;99.90;;;8.21;100.00;99569.03;4884956;29;20061;-79
2021/11/07 07:55:08;;;;;;;7.07;1.35;;;9.60;99.90;;;8.29;100.00;99565.97;4839673;28;20656;-78
2021/11/07 07:57:41;;;;;;;12.32;1.60;;;9.70;99.90;;;8.26;100.00;99553.88;4844158;29;20039;-79
2021/11/07 08:00:11;;;;;;;1.42;0.90;;;9.60;99.90;;;8.19;100.00;99536.81;4839782;29;20153;-79
2021/11/07 08:02:40;;;;;;;6.63;1.90;;;9.60;99.90;;;8.18;100.00;99533.31;4852985;29;20292;-79
2021/11/07 08:05:10;;;;;;;4.45;1.75;;;9.60;99.90;;;8.23;100.00;99538.34;4846456;29;20082;-79
2021/11/07 08:07:36;;;;;;;7.38;1.10;;;9.60;99.90;;;8.22;100.00;99534.84;4843626;28;20036;-78
2021/11/07 08:10:04;;;;;;;6.43;1.00;;;9.70;99.90;;;8.29;100.00;99548.44;4860402;29;20446;-79
2021/11/07 08:12:37;;;;;;;4.28;0.77;;;9.70;99.90;;;8.35;100.00;99571.72;4864172;28;20158;-78
2021/11/07 08:15:06;;;;;;;7.88;1.10;;;9.70;99.90;;;8.30;100.00;99552.78;4863013;29;20033;-79
2021/11/07 08:17:32;;;;;;;4.43;1.00;;;9.70;99.90;;;8.30;100.00;99554.56;4878744;28;20036;-79
2021/11/07 08:20:06;;;;;;;5.38;1.10;;;9.70;99.90;;;8.39;100.00;99560.13;4880144;29;20137;-79
2021/11/07 08:22:33;;;;;;;3.55;1.05;;;9.90;99.90;;;8.61;100.00;99580.78;4864974;29;20093;-78
2021/11/07 08:25:04;;;;;;;2.80;1.00;;;10.10;99.90;;;8.88;100.00;99579.31;4828861;29;20229;-79
2021/11/07 08:27:31;;;;;;;11.40;1.52;;;10.20;99.90;;;8.93;100.00;99582.50;4903696;28;20487;-79
2021/11/07 08:29:57;;;;;;;4.15;0.95;;;10.20;99.90;;;8.96;100.00;99577.06;4848925;29;20066;-79
2021/11/07 08:32:23;;;;;;;3.53;0.80;;;10.20;99.90;;;8.91;100.00;99560.75;4836381;29;20036;-79
2021/11/07 08:34:51;;;;;;;4.13;0.90;;;10.20;99.90;;;8.93;100.00;99561.50;4864023;29;20563;-79
2021/11/07 08:37:19;;;;;;;5.05;0.80;;;10.30;99.90;;;8.95;100.00;99547.34;4875508;29;20069;-79
2021/11/07 08:39:50;;;;;;;7.93;0.90;;;10.40;99.90;;;9.05;100.00;99563.41;4845720;29;20062;-79
2021/11/07 09:02:08;;;;;;;2.67;0.80;;;10.20;99.90;;;8.93;100.00;99549.22;4854319;29;20109;-80
2021/11/07 09:04:58;;;;;;;5.75;0.90;;;10.20;99.90;;;8.94;100.00;99547.44;4851386;29;20697;-79
2021/11/07 09:10:27;;;;;;;10.77;0.95;;;10.00;99.90;;;8.60;100.00;99526.63;4861340;29;20073;-79
2021/11/07 09:12:53;;;;;;;10.00;1.08;;;9.90;99.90;;;8.46;100.00;99518.69;4841003;29;20065;-79
2021/11/07 09:15:26;;;;;;;9.93;1.50;;;9.80;99.90;;;8.37;100.00;99524.44;4820172;29;20079;-79
2021/11/07 09:18:01;;;;;;;3.95;0.60;;;9.70;99.90;;;8.30;100.00;99520.47;4890213;28;20087;-79
2021/11/07 09:21:01;;;;;;;6.13;0.95;;;9.70;99.90;;;8.23;100.00;99533.09;4906271;29;20156;-79
2021/11/07 09:23:37;;;;;;;3.22;0.85;;;9.60;99.90;;;8.28;100.00;99535.44;4846166;29;20117;-79
2021/11/07 09:28:55;;;;;;;8.95;1.25;;;9.80;99.90;;;8.54;100.00;99547.13;4847170;29;20031;-79
2021/11/07 09:31:42;;;;;;;6.85;1.05;;;10.00;99.90;;;8.71;100.00;99560.13;4835201;28;20161;-79
2021/11/07 09:34:29;;;;;;;7.30;1.35;;;10.10;99.90;;;8.81;100.00;99550.78;4837853;29;20073;-79
2021/11/07 09:37:27;;;;;;;7.95;1.45;;;10.10;99.90;;;8.89;100.00;99557.38;4855340;29;20046;-79
2021/11/07 09:39:59;;;;;;;6.30;1.30;;;10.20;99.90;;;8.99;100.00;99558.53;4861043;29;20076;-79
2021/11/07 09:47:55;;;;;;;7.18;1.48;;;10.50;99.90;;;9.25;100.00;99570.13;4851950;29;20163;-79
2021/11/07 09:50:30;;;;;;;11.65;0.90;;;10.70;99.90;;;9.42;100.00;99571.72;4863934;29;20078;-79
2021/11/07 09:52:58;;;;;;;11.07;1.45;;;10.70;99.90;;;9.34;100.00;99560.84;4863717;29;20069;-82
2021/11/07 09:55:33;;;;;;;9.48;1.00;;;10.50;99.90;;;9.14;100.00;99541.03;4854381;29;20407;-79
2021/11/07 09:58:03;;;;;;;7.60;1.80;;;10.50;99.90;;;9.07;100.00;99545.78;4853607;29;20465;-79
2021/11/07 10:01:04;;;;;;;7.57;1.50;;;10.40;99.90;;;9.04;100.00;99543.34;4856293;28;20070;-79
2021/11/07 10:03:33;;;;;;;10.73;0.95;;;10.30;99.90;;;8.97;100.00;99536.75;4816894;29;20075;-80
2021/11/07 10:06:02;;;;;;;6.13;1.17;;;;;;;8.89;100.00;99531.94;4845412;29;20086;-79
2021/11/07 10:09:18;;;;;;;5.43;0.90;;;10.20;99.90;;;8.79;99.90;99539.53;4823217;29;20075;-81
2021/11/07 10:12:36;;;;;;;13.70;1.23;;;10.30;99.90;;;8.88;98.02;99524.19;4840277;29;20063;-81
2021/11/07 10:16:16;;;;;;;11.30;0.90;;;10.30;99.90;;;8.79;97.89;99508.03;4842848;28;20074;-81
2021/11/07 10:19:24;;;;;;;2.92;0.50;;;10.20;99.90;;;8.82;98.41;99531.47;4866551;29;20558;-80
2021/11/07 10:22:03;;;;;;;13.48;1.10;;;10.30;99.90;;;8.88;97.57;99532.91;4858461;29;20182;-80
2021/11/07 10:24:38;;;;;;;5.55;0.85;;;10.40;99.90;;;8.90;96.14;99522.28;4861450;28;20094;-82
2021/11/07 10:27:25;;;;;;;7.93;1.00;;;10.50;99.90;;;9.09;97.38;99540.44;4829936;29;20044;-81
2021/11/07 10:30:35;;;;;;;5.63;0.70;;;10.60;99.90;;;9.27;97.36;99556.91;4809417;29;20047;-82
2021/11/07 10:33:31;;;;;;;5.53;1.08;;;10.60;99.90;;;9.27;97.80;99552.47;4860996;28;20076;-82
2021/11/07 10:38:56;;;;;;;7.60;1.00;;;10.50;99.90;;;9.19;98.58;99542.41;4856801;29;20043;-80
2021/11/07 10:53:12;;;;;;;11.05;1.10;;;11.00;99.90;;;9.60;98.31;99559.25;4762020;29;20148;-79
2021/11/07 10:56:07;;;;;;;10.95;1.58;;;11.00;99.90;;;9.70;97.06;99564.78;4846148;29;20537;-80
2021/11/07 10:58:48;;;;;;;6.75;1.02;;;10.80;99.90;;;9.40;95.56;99536.81;4823518;29;20040;-80
2021/11/07 11:01:25;;;;;;;10.02;1.45;;;10.80;99.90;;;9.50;96.14;99553.69;4856541;29;20126;-79
2021/11/07 11:04:01;;;;;;;7.82;1.20;;;10.90;99.90;;;9.61;96.72;99567.06;4862794;29;20035;-79
2021/11/07 11:06:29;;;;;;;12.40;1.60;;;;;;;9.73;93.61;99577.75;4861044;28;20050;-79
2021/11/07 11:09:01;;;;;;;9.10;1.15;;;11.10;99.90;;;9.67;91.85;99573.69;4874860;28;20677;-81
2021/11/07 11:11:39;;;;;;;7.78;1.15;;;10.90;99.90;;;9.51;91.02;99578.22;4809208;29;20047;-80
2021/11/07 11:14:32;;;;;;;4.97;1.02;;;10.80;99.90;;;9.41;91.66;99568.25;4817651;29;20077;-80
2021/11/07 11:17:44;;;;;;;5.60;0.75;;;10.80;99.90;;;9.52;92.12;99564.97;4867435;28;20115;-82
2021/11/07 11:20:28;;;;;;;7.53;1.08;;;10.70;99.90;;;9.26;91.81;99549.94;4838602;28;20043;-80
2021/11/07 11:23:22;;;;;;;12.27;1.00;;;10.60;99.90;;;9.24;92.74;99561.41;4829465;29;20436;-81
2021/11/07 11:29:49;;;;;;;11.98;1.00;;;10.70;99.90;;;9.12;89.39;99524.50;4863843;29;20043;-82
2021/11/07 11:32:55;;;;;;;8.05;1.42;;;10.50;99.90;;;9.09;91.17;99543.91;4845349;29;20077;-83
2021/11/07 11:35:38;;;;;;;4.03;0.60;;;10.50;99.90;;;9.12;91.07;99546.34;4891135;29;20071;-80
2021/11/07 11:44:06;;;;;;;6.13;0.85;;;10.40;99.90;;;8.92;89.54;99528.28;4837381;29;20514;-80
2021/11/07 11:46:54;;;;;;;6.30;0.60;;;10.40;99.90;;;8.99;89.92;99522.59;4844651;29;20139;-81
2021/11/07 11:52:23;;;;;;;4.07;0.73;;;10.40;99.90;;;9.06;89.38;99548.50;4839904;29;20084;-81
2021/11/07 11:55:26;;;;;;;5.63;0.50;;;10.60;99.90;;;9.25;88.59;99554.34;4837194;29;20611;-80
2021/11/07 11:58:09;;;;;;;6.22;0.65;;;10.60;99.90;;;9.22;87.96;99539.63;4851110;29;20086;-80
2021/11/07 12:03:54;;;;;;;3.47;0.60;;;10.70;99.90;;;9.23;85.58;99522.91;4856755;29;20594;-80
2021/11/07 12:06:45;;;;;;;10.38;0.80;;;10.60;99.90;;;9.12;86.55;99541.09;4843466;29;20080;-80
2021/11/07 12:12:09;;;;;;;4.88;0.57;;;10.30;99.90;;;8.91;86.78;99582.59;4859931;29;20024;-80
2021/11/07 12:14:58;;;;;;;4.18;0.82;;;10.20;99.90;;;8.80;86.86;99596.31;4863529;29;20648;-80
2021/11/07 12:17:36;;;;;;;5.38;0.55;;;10.20;99.90;;;8.79;88.92;99585.91;4844298;29;20512;-80
2021/11/07 12:20:28;;;;;;;6.97;1.20;;;10.00;99.90;;;8.65;87.83;99568.34;4852701;29;20503;-80
2021/11/07 12:23:23;;;;;;;5.43;0.50;;;10.10;99.90;;;8.73;88.45;99566.13;4848885;29;20096;-80
2021/11/07 12:26:18;;;;;;;5.40;0.73;;;10.10;99.90;;;8.76;89.39;99576.44;4872004;29;20069;-80
2021/11/07 12:28:53;;;;;;;6.45;0.50;;;10.10;99.90;;;8.67;88.85;99558.59;4861201;29;20073;-80
2021/11/07 12:31:21;;;;;;;7.83;1.13;;;10.00;99.90;;;8.60;88.90;99557.28;4853044;29;20057;-80
2021/11/07 12:34:03;;;;;;;5.25;0.65;;;10.00;99.90;;;8.66;89.13;99558.69;4888655;29;20311;-80
2021/11/07 12:42:31;;;;;;;10.35;1.02;;;10.00;99.90;;;8.57;88.80;99552.19;4862873;29;20069;-81
2021/11/07 12:45:39;;;;;;;6.35;0.70;;;10.00;99.90;;;8.70;90.12;99563.66;4836258;29;20167;-80